sensor_id;sensor_type;location;lat;lon;timestamp;P1;durP1;ratioP1;P2;durP2;ratioP2
28627;SDS011;15815;46.760;19.604;2023-04-24T00:00:40;18.83;;;8.07;;
28627;SDS011;15815;46.760;19.604;2023-04-24T00:03:07;11.95;;;7.57;;
28627;SDS011;15815;46.760;19.604;2023-04-24T00:05:33;8.63;;;6.90;;
28627;SDS011;15815;46.760;19.604;2023-04-24T00:07:59;16.50;;;7.78;;
28627;SDS011;15815;46.760;19.604;2023-04-24T00:10:25;10.63;;;7.22;;
28627;SDS011;15815;46.760;19.604;2023-04-24T00:12:50;9.55;;;6.57;;
28627;SDS011;15815;46.760;19.604;2023-04-24T00:15:16;15.15;;;7.93;;
28627;SDS011;15815;46.760;19.604;2023-04-24T00:17:42;12.40;;;7.78;;
28627;SDS011;15815;46.760;19.604;2023-04-24T00:20:08;10.30;;;7.53;;
28627;SDS011;15815;46.760;19.604;2023-04-24T00:22:34;14.77;;;7.60;;
28627;SDS011;15815;46.760;19.604;2023-04-24T00:25:00;11.77;;;7.38;;
28627;SDS011;15815;46.760;19.604;2023-04-24T00:27:25;13.30;;;7.55;;
28627;SDS011;15815;46.760;19.604;2023-04-24T00:29:51;19.42;;;7.90;;
28627;SDS011;15815;46.760;19.604;2023-04-24T00:32:17;13.18;;;7.85;;
28627;SDS011;15815;46.760;19.604;2023-04-24T00:34:42;16.17;;;7.72;;
28627;SDS011;15815;46.760;19.604;2023-04-24T00:37:08;17.05;;;8.18;;
28627;SDS011;15815;46.760;19.604;2023-04-24T00:39:34;12.60;;;7.35;;
28627;SDS011;15815;46.760;19.604;2023-04-24T00:41:59;11.30;;;8.18;;
28627;SDS011;15815;46.760;19.604;2023-04-24T00:44:25;16.70;;;7.32;;
28627;SDS011;15815;46.760;19.604;2023-04-24T00:46:51;9.25;;;7.13;;
28627;SDS011;15815;46.760;19.604;2023-04-24T00:49:16;13.82;;;7.28;;
28627;SDS011;15815;46.760;19.604;2023-04-24T00:51:44;15.45;;;7.57;;
28627;SDS011;15815;46.760;19.604;2023-04-24T00:54:11;13.43;;;7.57;;
28627;SDS011;15815;46.760;19.604;2023-04-24T00:56:40;10.68;;;7.53;;
28627;SDS011;15815;46.760;19.604;2023-04-24T00:59:07;11.65;;;7.20;;
28627;SDS011;15815;46.760;19.604;2023-04-24T01:01:33;10.65;;;7.68;;
28627;SDS011;15815;46.760;19.604;2023-04-24T01:03:59;14.20;;;7.97;;
28627;SDS011;15815;46.760;19.604;2023-04-24T01:06:28;13.77;;;7.13;;
28627;SDS011;15815;46.760;19.604;2023-04-24T01:08:58;12.73;;;7.68;;
28627;SDS011;15815;46.760;19.604;2023-04-24T01:11:24;15.18;;;7.55;;
28627;SDS011;15815;46.760;19.604;2023-04-24T01:13:51;15.48;;;8.30;;
28627;SDS011;15815;46.760;19.604;2023-04-24T01:16:19;12.10;;;7.55;;
28627;SDS011;15815;46.760;19.604;2023-04-24T01:18:53;21.95;;;8.23;;
28627;SDS011;15815;46.760;19.604;2023-04-24T01:21:18;10.82;;;7.35;;
28627;SDS011;15815;46.760;19.604;2023-04-24T01:23:46;16.17;;;7.47;;
28627;SDS011;15815;46.760;19.604;2023-04-24T01:26:13;11.63;;;8.48;;
28627;SDS011;15815;46.760;19.604;2023-04-24T01:28:40;14.70;;;8.35;;
28627;SDS011;15815;46.760;19.604;2023-04-24T01:31:06;12.15;;;8.30;;
28627;SDS011;15815;46.760;19.604;2023-04-24T01:33:31;12.32;;;7.35;;
28627;SDS011;15815;46.760;19.604;2023-04-24T01:35:57;13.93;;;7.43;;
28627;SDS011;15815;46.760;19.604;2023-04-24T01:38:23;10.55;;;6.68;;
28627;SDS011;15815;46.760;19.604;2023-04-24T01:40:50;12.10;;;6.60;;
28627;SDS011;15815;46.760;19.604;2023-04-24T01:43:16;11.38;;;5.78;;
28627;SDS011;15815;46.760;19.604;2023-04-24T01:45:42;14.13;;;6.22;;
28627;SDS011;15815;46.760;19.604;2023-04-24T01:48:08;12.65;;;5.97;;
28627;SDS011;15815;46.760;19.604;2023-04-24T01:50:33;10.40;;;5.90;;
28627;SDS011;15815;46.760;19.604;2023-04-24T01:52:59;19.10;;;6.30;;
28627;SDS011;15815;46.760;19.604;2023-04-24T01:55:25;8.85;;;6.13;;
28627;SDS011;15815;46.760;19.604;2023-04-24T01:57:53;8.20;;;6.45;;
28627;SDS011;15815;46.760;19.604;2023-04-24T02:00:20;17.05;;;6.82;;
28627;SDS011;15815;46.760;19.604;2023-04-24T02:02:46;11.57;;;6.85;;
28627;SDS011;15815;46.760;19.604;2023-04-24T02:05:12;9.27;;;5.38;;
28627;SDS011;15815;46.760;19.604;2023-04-24T02:07:37;16.85;;;6.28;;
28627;SDS011;15815;46.760;19.604;2023-04-24T02:10:03;12.43;;;6.32;;
28627;SDS011;15815;46.760;19.604;2023-04-24T02:12:30;10.45;;;6.65;;
28627;SDS011;15815;46.760;19.604;2023-04-24T02:14:56;11.50;;;6.47;;
28627;SDS011;15815;46.760;19.604;2023-04-24T02:17:21;11.27;;;6.63;;
28627;SDS011;15815;46.760;19.604;2023-04-24T02:19:50;13.48;;;6.35;;
28627;SDS011;15815;46.760;19.604;2023-04-24T02:22:16;11.82;;;6.70;;
28627;SDS011;15815;46.760;19.604;2023-04-24T02:24:41;14.25;;;7.25;;
28627;SDS011;15815;46.760;19.604;2023-04-24T02:27:08;15.07;;;7.47;;
28627;SDS011;15815;46.760;19.604;2023-04-24T02:29:33;13.57;;;7.05;;
28627;SDS011;15815;46.760;19.604;2023-04-24T02:32:01;12.50;;;6.95;;
28627;SDS011;15815;46.760;19.604;2023-04-24T02:34:27;13.52;;;6.50;;
28627;SDS011;15815;46.760;19.604;2023-04-24T02:36:52;12.88;;;7.18;;
28627;SDS011;15815;46.760;19.604;2023-04-24T02:39:23;9.95;;;6.88;;
28627;SDS011;15815;46.760;19.604;2023-04-24T02:41:49;9.82;;;6.88;;
28627;SDS011;15815;46.760;19.604;2023-04-24T02:44:15;15.50;;;6.30;;
28627;SDS011;15815;46.760;19.604;2023-04-24T02:46:40;15.68;;;7.10;;
28627;SDS011;15815;46.760;19.604;2023-04-24T02:49:06;10.15;;;6.63;;
28627;SDS011;15815;46.760;19.604;2023-04-24T02:51:31;10.25;;;6.85;;
28627;SDS011;15815;46.760;19.604;2023-04-24T02:53:57;17.77;;;7.35;;
28627;SDS011;15815;46.760;19.604;2023-04-24T02:56:24;12.43;;;7.22;;
28627;SDS011;15815;46.760;19.604;2023-04-24T02:58:50;14.73;;;8.02;;
28627;SDS011;15815;46.760;19.604;2023-04-24T03:01:15;11.10;;;7.78;;
28627;SDS011;15815;46.760;19.604;2023-04-24T03:03:41;10.60;;;7.45;;
28627;SDS011;15815;46.760;19.604;2023-04-24T03:06:07;12.40;;;7.32;;
28627;SDS011;15815;46.760;19.604;2023-04-24T03:08:32;9.32;;;7.95;;
28627;SDS011;15815;46.760;19.604;2023-04-24T03:10:59;11.52;;;8.30;;
28627;SDS011;15815;46.760;19.604;2023-04-24T03:13:25;12.75;;;7.82;;
28627;SDS011;15815;46.760;19.604;2023-04-24T03:15:50;14.45;;;9.05;;
28627;SDS011;15815;46.760;19.604;2023-04-24T03:18:17;10.93;;;7.63;;
28627;SDS011;15815;46.760;19.604;2023-04-24T03:20:45;9.70;;;7.28;;
28627;SDS011;15815;46.760;19.604;2023-04-24T03:23:11;10.27;;;8.27;;
28627;SDS011;15815;46.760;19.604;2023-04-24T03:25:36;14.82;;;8.18;;
28627;SDS011;15815;46.760;19.604;2023-04-24T03:28:02;16.10;;;9.55;;
28627;SDS011;15815;46.760;19.604;2023-04-24T03:30:27;19.15;;;9.95;;
28627;SDS011;15815;46.760;19.604;2023-04-24T03:32:54;12.45;;;8.60;;
28627;SDS011;15815;46.760;19.604;2023-04-24T03:35:19;12.88;;;9.35;;
28627;SDS011;15815;46.760;19.604;2023-04-24T03:37:45;14.63;;;9.45;;
28627;SDS011;15815;46.760;19.604;2023-04-24T03:40:11;17.17;;;8.85;;
28627;SDS011;15815;46.760;19.604;2023-04-24T03:42:36;13.23;;;9.18;;
28627;SDS011;15815;46.760;19.604;2023-04-24T03:45:02;14.20;;;8.48;;
28627;SDS011;15815;46.760;19.604;2023-04-24T03:47:28;14.48;;;8.90;;
28627;SDS011;15815;46.760;19.604;2023-04-24T03:49:54;12.60;;;8.95;;
28627;SDS011;15815;46.760;19.604;2023-04-24T03:52:21;14.00;;;10.68;;
28627;SDS011;15815;46.760;19.604;2023-04-24T03:54:47;17.35;;;10.90;;
28627;SDS011;15815;46.760;19.604;2023-04-24T03:57:13;17.33;;;10.27;;
28627;SDS011;15815;46.760;19.604;2023-04-24T03:59:42;13.07;;;9.35;;
28627;SDS011;15815;46.760;19.604;2023-04-24T04:02:08;12.73;;;10.50;;
28627;SDS011;15815;46.760;19.604;2023-04-24T04:04:34;15.05;;;10.23;;
28627;SDS011;15815;46.760;19.604;2023-04-24T04:06:59;18.08;;;9.68;;
28627;SDS011;15815;46.760;19.604;2023-04-24T04:09:28;16.50;;;10.25;;
28627;SDS011;15815;46.760;19.604;2023-04-24T04:11:54;16.48;;;9.90;;
28627;SDS011;15815;46.760;19.604;2023-04-24T04:14:20;13.93;;;9.90;;
28627;SDS011;15815;46.760;19.604;2023-04-24T04:16:46;13.95;;;10.30;;
28627;SDS011;15815;46.760;19.604;2023-04-24T04:19:11;21.98;;;9.93;;
28627;SDS011;15815;46.760;19.604;2023-04-24T04:21:39;12.75;;;10.30;;
28627;SDS011;15815;46.760;19.604;2023-04-24T04:24:05;19.73;;;11.02;;
28627;SDS011;15815;46.760;19.604;2023-04-24T04:26:39;16.85;;;10.60;;
28627;SDS011;15815;46.760;19.604;2023-04-24T04:29:10;15.00;;;10.55;;
28627;SDS011;15815;46.760;19.604;2023-04-24T04:31:36;14.13;;;10.10;;
28627;SDS011;15815;46.760;19.604;2023-04-24T04:34:01;11.80;;;9.82;;
28627;SDS011;15815;46.760;19.604;2023-04-24T04:36:27;15.10;;;9.55;;
28627;SDS011;15815;46.760;19.604;2023-04-24T04:38:55;17.25;;;11.48;;
28627;SDS011;15815;46.760;19.604;2023-04-24T04:41:21;16.92;;;11.70;;
28627;SDS011;15815;46.760;19.604;2023-04-24T04:43:47;18.83;;;10.85;;
28627;SDS011;15815;46.760;19.604;2023-04-24T04:46:15;15.95;;;9.88;;
28627;SDS011;15815;46.760;19.604;2023-04-24T04:48:42;20.13;;;11.10;;
28627;SDS011;15815;46.760;19.604;2023-04-24T04:51:08;13.98;;;9.65;;
28627;SDS011;15815;46.760;19.604;2023-04-24T04:53:33;12.43;;;9.70;;
28627;SDS011;15815;46.760;19.604;2023-04-24T04:56:04;19.67;;;10.02;;
28627;SDS011;15815;46.760;19.604;2023-04-24T05:00:58;17.30;;;10.30;;
28627;SDS011;15815;46.760;19.604;2023-04-24T05:03:24;15.63;;;9.60;;
28627;SDS011;15815;46.760;19.604;2023-04-24T05:05:50;14.77;;;10.85;;
28627;SDS011;15815;46.760;19.604;2023-04-24T05:08:16;16.77;;;9.85;;
28627;SDS011;15815;46.760;19.604;2023-04-24T05:10:41;19.13;;;11.25;;
28627;SDS011;15815;46.760;19.604;2023-04-24T05:13:07;12.50;;;10.35;;
28627;SDS011;15815;46.760;19.604;2023-04-24T05:15:37;15.02;;;9.80;;
28627;SDS011;15815;46.760;19.604;2023-04-24T05:18:03;12.05;;;9.63;;
28627;SDS011;15815;46.760;19.604;2023-04-24T05:20:29;16.08;;;9.60;;
28627;SDS011;15815;46.760;19.604;2023-04-24T05:22:55;21.73;;;10.07;;
28627;SDS011;15815;46.760;19.604;2023-04-24T05:25:20;14.02;;;9.27;;
28627;SDS011;15815;46.760;19.604;2023-04-24T05:27:51;18.40;;;8.70;;
28627;SDS011;15815;46.760;19.604;2023-04-24T05:30:22;12.65;;;8.50;;
28627;SDS011;15815;46.760;19.604;2023-04-24T05:32:50;15.00;;;8.90;;
28627;SDS011;15815;46.760;19.604;2023-04-24T05:35:45;11.98;;;8.48;;
28627;SDS011;15815;46.760;19.604;2023-04-24T05:38:14;16.13;;;9.38;;
28627;SDS011;15815;46.760;19.604;2023-04-24T05:43:17;14.68;;;9.55;;
28627;SDS011;15815;46.760;19.604;2023-04-24T05:45:43;13.63;;;9.32;;
28627;SDS011;15815;46.760;19.604;2023-04-24T05:50:47;23.10;;;11.98;;
28627;SDS011;15815;46.760;19.604;2023-04-24T05:53:16;11.98;;;9.70;;
28627;SDS011;15815;46.760;19.604;2023-04-24T05:55:42;13.32;;;9.50;;
28627;SDS011;15815;46.760;19.604;2023-04-24T05:58:10;21.13;;;10.00;;
28627;SDS011;15815;46.760;19.604;2023-04-24T06:00:36;21.45;;;9.93;;
28627;SDS011;15815;46.760;19.604;2023-04-24T06:03:02;12.20;;;9.70;;
28627;SDS011;15815;46.760;19.604;2023-04-24T06:07:56;16.73;;;9.73;;
28627;SDS011;15815;46.760;19.604;2023-04-24T06:10:24;15.48;;;10.57;;
28627;SDS011;15815;46.760;19.604;2023-04-24T06:12:50;16.13;;;10.98;;
28627;SDS011;15815;46.760;19.604;2023-04-24T06:15:24;17.20;;;9.90;;
28627;SDS011;15815;46.760;19.604;2023-04-24T06:17:49;21.90;;;10.70;;
28627;SDS011;15815;46.760;19.604;2023-04-24T06:20:18;19.95;;;11.95;;
28627;SDS011;15815;46.760;19.604;2023-04-24T06:22:43;16.23;;;11.52;;
28627;SDS011;15815;46.760;19.604;2023-04-24T06:25:09;22.45;;;13.90;;
28627;SDS011;15815;46.760;19.604;2023-04-24T06:27:35;16.58;;;10.70;;
28627;SDS011;15815;46.760;19.604;2023-04-24T06:30:03;13.27;;;11.52;;
28627;SDS011;15815;46.760;19.604;2023-04-24T06:32:29;17.30;;;12.38;;
28627;SDS011;15815;46.760;19.604;2023-04-24T06:34:55;20.20;;;13.85;;
28627;SDS011;15815;46.760;19.604;2023-04-24T06:37:22;19.70;;;13.35;;
28627;SDS011;15815;46.760;19.604;2023-04-24T06:39:48;17.85;;;13.02;;
28627;SDS011;15815;46.760;19.604;2023-04-24T06:42:14;20.05;;;12.32;;
28627;SDS011;15815;46.760;19.604;2023-04-24T06:47:17;21.98;;;13.52;;
28627;SDS011;15815;46.760;19.604;2023-04-24T06:49:43;19.00;;;12.80;;
28627;SDS011;15815;46.760;19.604;2023-04-24T06:54:41;18.13;;;13.80;;
28627;SDS011;15815;46.760;19.604;2023-04-24T06:57:09;21.10;;;13.50;;
28627;SDS011;15815;46.760;19.604;2023-04-24T06:59:34;18.85;;;13.13;;
28627;SDS011;15815;46.760;19.604;2023-04-24T07:02:03;22.48;;;13.40;;
28627;SDS011;15815;46.760;19.604;2023-04-24T07:04:29;18.20;;;13.25;;
28627;SDS011;15815;46.760;19.604;2023-04-24T07:06:55;18.50;;;13.40;;
28627;SDS011;15815;46.760;19.604;2023-04-24T07:09:22;18.02;;;12.48;;
28627;SDS011;15815;46.760;19.604;2023-04-24T07:11:48;18.48;;;12.93;;
28627;SDS011;15815;46.760;19.604;2023-04-24T07:14:17;18.98;;;14.40;;
28627;SDS011;15815;46.760;19.604;2023-04-24T07:16:46;20.17;;;13.00;;
28627;SDS011;15815;46.760;19.604;2023-04-24T07:19:13;23.25;;;15.63;;
28627;SDS011;15815;46.760;19.604;2023-04-24T07:21:38;22.15;;;17.17;;
28627;SDS011;15815;46.760;19.604;2023-04-24T07:24:07;23.20;;;14.90;;
28627;SDS011;15815;46.760;19.604;2023-04-24T07:26:33;20.02;;;14.88;;
28627;SDS011;15815;46.760;19.604;2023-04-24T07:29:05;20.80;;;13.32;;
28627;SDS011;15815;46.760;19.604;2023-04-24T07:31:31;22.52;;;13.25;;
28627;SDS011;15815;46.760;19.604;2023-04-24T07:33:58;18.92;;;12.48;;
28627;SDS011;15815;46.760;19.604;2023-04-24T07:36:24;17.52;;;12.57;;
28627;SDS011;15815;46.760;19.604;2023-04-24T07:38:50;20.08;;;14.93;;
28627;SDS011;15815;46.760;19.604;2023-04-24T07:41:15;24.70;;;14.70;;
28627;SDS011;15815;46.760;19.604;2023-04-24T07:43:41;20.95;;;13.77;;
28627;SDS011;15815;46.760;19.604;2023-04-24T07:46:10;18.55;;;13.60;;
28627;SDS011;15815;46.760;19.604;2023-04-24T07:48:35;20.52;;;14.23;;
28627;SDS011;15815;46.760;19.604;2023-04-24T07:51:01;17.50;;;13.38;;
28627;SDS011;15815;46.760;19.604;2023-04-24T07:53:27;21.85;;;16.45;;
28627;SDS011;15815;46.760;19.604;2023-04-24T07:55:56;21.77;;;12.90;;
28627;SDS011;15815;46.760;19.604;2023-04-24T07:58:21;17.10;;;12.18;;
28627;SDS011;15815;46.760;19.604;2023-04-24T08:00:53;18.85;;;12.73;;
28627;SDS011;15815;46.760;19.604;2023-04-24T08:03:19;13.85;;;11.38;;
28627;SDS011;15815;46.760;19.604;2023-04-24T08:05:46;17.98;;;11.57;;
28627;SDS011;15815;46.760;19.604;2023-04-24T08:08:12;19.52;;;12.60;;
28627;SDS011;15815;46.760;19.604;2023-04-24T08:10:38;21.92;;;12.70;;
28627;SDS011;15815;46.760;19.604;2023-04-24T08:13:04;14.07;;;11.70;;
28627;SDS011;15815;46.760;19.604;2023-04-24T08:15:29;15.80;;;10.77;;
28627;SDS011;15815;46.760;19.604;2023-04-24T08:17:55;20.38;;;12.18;;
28627;SDS011;15815;46.760;19.604;2023-04-24T08:20:21;20.27;;;13.93;;
28627;SDS011;15815;46.760;19.604;2023-04-24T08:22:46;53.60;;;33.00;;
28627;SDS011;15815;46.760;19.604;2023-04-24T08:25:12;28.95;;;22.35;;
28627;SDS011;15815;46.760;19.604;2023-04-24T08:27:39;18.65;;;14.57;;
28627;SDS011;15815;46.760;19.604;2023-04-24T08:30:05;19.58;;;12.93;;
28627;SDS011;15815;46.760;19.604;2023-04-24T08:32:31;19.55;;;12.90;;
28627;SDS011;15815;46.760;19.604;2023-04-24T08:37:26;20.83;;;14.35;;
28627;SDS011;15815;46.760;19.604;2023-04-24T08:39:52;17.13;;;13.68;;
28627;SDS011;15815;46.760;19.604;2023-04-24T08:42:25;15.43;;;12.48;;
28627;SDS011;15815;46.760;19.604;2023-04-24T08:44:53;17.27;;;12.30;;
28627;SDS011;15815;46.760;19.604;2023-04-24T08:47:20;22.02;;;14.15;;
28627;SDS011;15815;46.760;19.604;2023-04-24T08:49:46;24.77;;;13.82;;
28627;SDS011;15815;46.760;19.604;2023-04-24T08:52:16;17.75;;;13.13;;
28627;SDS011;15815;46.760;19.604;2023-04-24T08:54:43;34.28;;;19.35;;
28627;SDS011;15815;46.760;19.604;2023-04-24T08:57:10;20.77;;;16.60;;
28627;SDS011;15815;46.760;19.604;2023-04-24T08:59:39;26.55;;;16.65;;
28627;SDS011;15815;46.760;19.604;2023-04-24T09:02:05;18.52;;;13.30;;
28627;SDS011;15815;46.760;19.604;2023-04-24T09:04:35;17.42;;;12.77;;
28627;SDS011;15815;46.760;19.604;2023-04-24T09:07:01;20.42;;;12.73;;
28627;SDS011;15815;46.760;19.604;2023-04-24T09:09:29;16.60;;;11.02;;
28627;SDS011;15815;46.760;19.604;2023-04-24T09:11:59;16.75;;;10.27;;
28627;SDS011;15815;46.760;19.604;2023-04-24T09:14:27;15.68;;;10.60;;
28627;SDS011;15815;46.760;19.604;2023-04-24T09:16:55;17.63;;;10.13;;
28627;SDS011;15815;46.760;19.604;2023-04-24T09:19:21;15.98;;;9.57;;
28627;SDS011;15815;46.760;19.604;2023-04-24T09:21:47;15.25;;;9.60;;
28627;SDS011;15815;46.760;19.604;2023-04-24T09:24:16;15.57;;;11.05;;
28627;SDS011;15815;46.760;19.604;2023-04-24T09:26:46;13.25;;;10.52;;
28627;SDS011;15815;46.760;19.604;2023-04-24T09:29:15;13.65;;;9.55;;
28627;SDS011;15815;46.760;19.604;2023-04-24T09:31:42;23.33;;;16.58;;
28627;SDS011;15815;46.760;19.604;2023-04-24T09:34:07;19.67;;;9.20;;
28627;SDS011;15815;46.760;19.604;2023-04-24T09:36:36;21.67;;;10.82;;
28627;SDS011;15815;46.760;19.604;2023-04-24T09:39:04;16.25;;;9.57;;
28627;SDS011;15815;46.760;19.604;2023-04-24T09:41:31;19.40;;;8.45;;
28627;SDS011;15815;46.760;19.604;2023-04-24T09:44:09;12.98;;;8.07;;
28627;SDS011;15815;46.760;19.604;2023-04-24T09:46:37;10.38;;;7.53;;
28627;SDS011;15815;46.760;19.604;2023-04-24T09:49:15;15.38;;;8.90;;
28627;SDS011;15815;46.760;19.604;2023-04-24T09:51:44;13.63;;;7.88;;
28627;SDS011;15815;46.760;19.604;2023-04-24T09:54:19;17.25;;;7.80;;
28627;SDS011;15815;46.760;19.604;2023-04-24T09:56:46;13.77;;;7.40;;
28627;SDS011;15815;46.760;19.604;2023-04-24T09:59:13;10.70;;;7.13;;
28627;SDS011;15815;46.760;19.604;2023-04-24T10:01:50;12.45;;;7.15;;
28627;SDS011;15815;46.760;19.604;2023-04-24T10:04:21;12.30;;;7.57;;
28627;SDS011;15815;46.760;19.604;2023-04-24T10:06:49;14.10;;;8.00;;
28627;SDS011;15815;46.760;19.604;2023-04-24T10:09:15;9.80;;;7.43;;
28627;SDS011;15815;46.760;19.604;2023-04-24T10:11:43;11.02;;;6.97;;
28627;SDS011;15815;46.760;19.604;2023-04-24T10:14:16;14.23;;;8.63;;
28627;SDS011;15815;46.760;19.604;2023-04-24T10:16:44;17.83;;;8.13;;
28627;SDS011;15815;46.760;19.604;2023-04-24T10:19:11;14.13;;;8.75;;
28627;SDS011;15815;46.760;19.604;2023-04-24T10:21:37;11.48;;;7.85;;
28627;SDS011;15815;46.760;19.604;2023-04-24T10:24:04;14.38;;;8.30;;
28627;SDS011;15815;46.760;19.604;2023-04-24T10:26:30;12.73;;;7.53;;
28627;SDS011;15815;46.760;19.604;2023-04-24T10:28:59;11.02;;;6.65;;
28627;SDS011;15815;46.760;19.604;2023-04-24T10:31:29;10.88;;;6.47;;
28627;SDS011;15815;46.760;19.604;2023-04-24T10:33:56;7.03;;;6.03;;
28627;SDS011;15815;46.760;19.604;2023-04-24T10:36:25;10.57;;;7.05;;
28627;SDS011;15815;46.760;19.604;2023-04-24T10:38:56;8.77;;;7.28;;
28627;SDS011;15815;46.760;19.604;2023-04-24T10:41:25;10.10;;;7.85;;
28627;SDS011;15815;46.760;19.604;2023-04-24T10:44:09;16.27;;;7.25;;
28627;SDS011;15815;46.760;19.604;2023-04-24T10:46:55;8.80;;;6.65;;
28627;SDS011;15815;46.760;19.604;2023-04-24T10:49:27;10.45;;;6.43;;
28627;SDS011;15815;46.760;19.604;2023-04-24T10:52:01;8.07;;;6.28;;
28627;SDS011;15815;46.760;19.604;2023-04-24T10:54:29;8.23;;;5.70;;
28627;SDS011;15815;46.760;19.604;2023-04-24T10:59:46;2.45;;;1.65;;
28627;SDS011;15815;46.760;19.604;2023-04-24T11:02:16;6.15;;;1.60;;
28627;SDS011;15815;46.760;19.604;2023-04-24T11:04:42;2.00;;;1.40;;
28627;SDS011;15815;46.760;19.604;2023-04-24T11:07:10;2.55;;;1.40;;
28627;SDS011;15815;46.760;19.604;2023-04-24T11:09:36;1.67;;;1.52;;
28627;SDS011;15815;46.760;19.604;2023-04-24T11:12:06;2.17;;;1.95;;
28627;SDS011;15815;46.760;19.604;2023-04-24T11:20:04;6.30;;;2.50;;
28627;SDS011;15815;46.760;19.604;2023-04-24T11:22:36;1.85;;;1.55;;
28627;SDS011;15815;46.760;19.604;2023-04-24T11:25:03;3.17;;;1.55;;
28627;SDS011;15815;46.760;19.604;2023-04-24T11:27:30;2.42;;;1.50;;
28627;SDS011;15815;46.760;19.604;2023-04-24T11:30:01;3.30;;;1.50;;
28627;SDS011;15815;46.760;19.604;2023-04-24T11:34:57;1.58;;;1.38;;
28627;SDS011;15815;46.760;19.604;2023-04-24T11:37:29;6.28;;;1.50;;
28627;SDS011;15815;46.760;19.604;2023-04-24T11:40:04;2.20;;;1.10;;
28627;SDS011;15815;46.760;19.604;2023-04-24T11:42:41;3.83;;;1.15;;
28627;SDS011;15815;46.760;19.604;2023-04-24T11:47:36;2.17;;;1.23;;
28627;SDS011;15815;46.760;19.604;2023-04-24T11:50:03;3.35;;;1.70;;
28627;SDS011;15815;46.760;19.604;2023-04-24T11:52:36;3.60;;;1.63;;
28627;SDS011;15815;46.760;19.604;2023-04-24T11:55:03;4.78;;;1.88;;
28627;SDS011;15815;46.760;19.604;2023-04-24T12:00:03;5.55;;;1.88;;
28627;SDS011;15815;46.760;19.604;2023-04-24T12:02:29;1.90;;;1.58;;
28627;SDS011;15815;46.760;19.604;2023-04-24T12:04:55;2.63;;;2.00;;
28627;SDS011;15815;46.760;19.604;2023-04-24T12:07:21;3.40;;;2.05;;
28627;SDS011;15815;46.760;19.604;2023-04-24T12:09:58;2.83;;;1.63;;
28627;SDS011;15815;46.760;19.604;2023-04-24T12:12:25;1.73;;;1.63;;
28627;SDS011;15815;46.760;19.604;2023-04-24T12:14:53;2.63;;;1.73;;
28627;SDS011;15815;46.760;19.604;2023-04-24T12:17:26;2.95;;;2.25;;
28627;SDS011;15815;46.760;19.604;2023-04-24T12:19:56;1.65;;;1.55;;
28627;SDS011;15815;46.760;19.604;2023-04-24T12:22:23;3.45;;;1.98;;
28627;SDS011;15815;46.760;19.604;2023-04-24T12:25:03;4.03;;;2.08;;
28627;SDS011;15815;46.760;19.604;2023-04-24T12:27:30;2.42;;;1.83;;
28627;SDS011;15815;46.760;19.604;2023-04-24T12:29:57;2.20;;;1.83;;
28627;SDS011;15815;46.760;19.604;2023-04-24T12:32:28;2.25;;;1.85;;
28627;SDS011;15815;46.760;19.604;2023-04-24T12:34:54;4.68;;;2.20;;
28627;SDS011;15815;46.760;19.604;2023-04-24T12:37:22;3.15;;;2.40;;
28627;SDS011;15815;46.760;19.604;2023-04-24T12:42:30;3.40;;;2.72;;
28627;SDS011;15815;46.760;19.604;2023-04-24T12:45:01;4.38;;;3.45;;
28627;SDS011;15815;46.760;19.604;2023-04-24T12:47:31;3.95;;;3.00;;
28627;SDS011;15815;46.760;19.604;2023-04-24T12:49:58;6.53;;;3.35;;
28627;SDS011;15815;46.760;19.604;2023-04-24T12:52:28;9.63;;;2.67;;
28627;SDS011;15815;46.760;19.604;2023-04-24T12:55:00;4.18;;;2.80;;
28627;SDS011;15815;46.760;19.604;2023-04-24T12:57:34;6.68;;;2.80;;
28627;SDS011;15815;46.760;19.604;2023-04-24T13:00:04;4.57;;;2.65;;
28627;SDS011;15815;46.760;19.604;2023-04-24T13:02:33;4.10;;;3.05;;
28627;SDS011;15815;46.760;19.604;2023-04-24T13:05:02;4.68;;;3.10;;
28627;SDS011;15815;46.760;19.604;2023-04-24T13:07:30;8.27;;;4.43;;
28627;SDS011;15815;46.760;19.604;2023-04-24T13:09:56;4.90;;;3.63;;
28627;SDS011;15815;46.760;19.604;2023-04-24T13:12:23;3.00;;;2.35;;
28627;SDS011;15815;46.760;19.604;2023-04-24T13:14:49;5.07;;;3.50;;
28627;SDS011;15815;46.760;19.604;2023-04-24T13:17:15;5.65;;;2.80;;
28627;SDS011;15815;46.760;19.604;2023-04-24T13:19:41;6.03;;;3.42;;
28627;SDS011;15815;46.760;19.604;2023-04-24T13:22:09;3.70;;;3.00;;
28627;SDS011;15815;46.760;19.604;2023-04-24T13:24:38;6.75;;;3.10;;
28627;SDS011;15815;46.760;19.604;2023-04-24T13:27:05;4.03;;;2.75;;
28627;SDS011;15815;46.760;19.604;2023-04-24T13:29:31;4.68;;;2.53;;
28627;SDS011;15815;46.760;19.604;2023-04-24T13:31:57;5.60;;;2.30;;
28627;SDS011;15815;46.760;19.604;2023-04-24T13:34:23;3.53;;;2.20;;
28627;SDS011;15815;46.760;19.604;2023-04-24T13:36:50;4.15;;;2.53;;
28627;SDS011;15815;46.760;19.604;2023-04-24T13:39:19;6.10;;;2.65;;
28627;SDS011;15815;46.760;19.604;2023-04-24T13:41:45;7.97;;;3.58;;
28627;SDS011;15815;46.760;19.604;2023-04-24T13:44:12;6.47;;;2.90;;
28627;SDS011;15815;46.760;19.604;2023-04-24T13:46:41;9.07;;;3.33;;
28627;SDS011;15815;46.760;19.604;2023-04-24T13:49:14;9.02;;;4.40;;
28627;SDS011;15815;46.760;19.604;2023-04-24T13:54:09;3.80;;;2.63;;
28627;SDS011;15815;46.760;19.604;2023-04-24T13:56:40;5.25;;;2.85;;
28627;SDS011;15815;46.760;19.604;2023-04-24T13:59:14;5.05;;;3.22;;
28627;SDS011;15815;46.760;19.604;2023-04-24T14:01:42;5.38;;;3.20;;
28627;SDS011;15815;46.760;19.604;2023-04-24T14:04:08;6.20;;;3.17;;
28627;SDS011;15815;46.760;19.604;2023-04-24T14:06:37;4.22;;;3.17;;
28627;SDS011;15815;46.760;19.604;2023-04-24T14:09:03;5.22;;;3.78;;
28627;SDS011;15815;46.760;19.604;2023-04-24T14:11:30;7.72;;;3.65;;
28627;SDS011;15815;46.760;19.604;2023-04-24T14:13:56;8.93;;;4.03;;
28627;SDS011;15815;46.760;19.604;2023-04-24T14:16:27;6.30;;;3.65;;
28627;SDS011;15815;46.760;19.604;2023-04-24T14:18:53;9.82;;;5.47;;
28627;SDS011;15815;46.760;19.604;2023-04-24T14:21:19;8.85;;;4.60;;
28627;SDS011;15815;46.760;19.604;2023-04-24T14:23:49;5.50;;;3.78;;
28627;SDS011;15815;46.760;19.604;2023-04-24T14:26:19;9.00;;;3.55;;
28627;SDS011;15815;46.760;19.604;2023-04-24T14:28:48;5.70;;;3.58;;
28627;SDS011;15815;46.760;19.604;2023-04-24T14:31:18;5.05;;;3.50;;
28627;SDS011;15815;46.760;19.604;2023-04-24T14:33:48;7.38;;;3.60;;
28627;SDS011;15815;46.760;19.604;2023-04-24T14:36:18;4.53;;;3.65;;
28627;SDS011;15815;46.760;19.604;2023-04-24T14:38:46;5.72;;;3.15;;
28627;SDS011;15815;46.760;19.604;2023-04-24T14:41:12;5.32;;;3.50;;
28627;SDS011;15815;46.760;19.604;2023-04-24T14:43:38;10.23;;;3.67;;
28627;SDS011;15815;46.760;19.604;2023-04-24T14:46:08;6.97;;;4.25;;
28627;SDS011;15815;46.760;19.604;2023-04-24T14:48:34;5.67;;;3.47;;
28627;SDS011;15815;46.760;19.604;2023-04-24T14:51:00;5.75;;;4.18;;
28627;SDS011;15815;46.760;19.604;2023-04-24T14:53:25;5.10;;;3.50;;
28627;SDS011;15815;46.760;19.604;2023-04-24T14:55:57;7.72;;;4.95;;
28627;SDS011;15815;46.760;19.604;2023-04-24T14:58:23;13.55;;;5.40;;
28627;SDS011;15815;46.760;19.604;2023-04-24T15:00:48;15.30;;;7.20;;